RAIN

Not for real navigation. The accuracy of this data is not assured See disclaimer for more information



ICAO NAME COUNTRY WIND Kt GUST Kt VIS m TEMP/DEW C BARO METAR
YMLT Launceston Airport Australia 4 0 50 3/3 30.15 YMLT 161300Z AUTO 34004KT 0050 -SHRA OVC001 03/03 Q1021
KELZ WELLSVILLE MUNICIPAL AIRPORT NY United States 0 0 400 16/16 29.85 KELZ 161256Z AUTO 00000KT 0.25SM -RA FG VV002 16/16 A2985 RMK AO2 SLP103 P0002 T01610161 $
CYMU Umiujaq Canada 4 0 800 2/2 29.63 CYMU 161258Z 21004KT 0.5SM -SHRADZ FG OVC002 02/02 A2963 RMK FG4ST4 SLP040
PAAK Atka, Atka Airport AK United States 15 21 800 7/6 29.73 PAAK 161256Z AUTO 29015G21KT 0.5SM FG OVC003 07/06 A2973 RMK AO2 RAE39 SLP069 P0000 T00670061
SAEZ Ezeiza Aerodrome Argentina 12 0 800 16/16 30.12 SAEZ 161300Z 12012KT 0800 R11/1200N +RA OVC007 16/16 Q1020 NOSIG

Show more